Current | Forecast
Updated: 10:00 PM CEST on April 30, 2017
Observed at Osijek - Cepin, Croatia
Temperature 11°C
Humidity 71%
Dew Point 6°C
Wind East at 11 km/h
Pressure 1016 hPa (Steady)
Conditions Clear
Visibility -
UV N/A
Clouds
Yesterday's Maximum 11°C
Yesterday's Minimum 5°C approx.
Yesterday's Heating Degree Days 19 approx.
Sunrise5:36 AM CEST
Sunset7:53 PM CEST
Moon Rise9:04 AM CEST
Moon Set
Moon PhaseMoon Phase
Waxing Crescent
Raw METARMETAR LDOS 302000Z 08006KT CAVOK 11/06 Q1016


Monday
. High: 71° F.
Tuesday
. High: 78° F.
Wednesday
. High: 84° F.
Thursday
. High: 80° F.
Friday
. High: 73° F.
Saturday
. High: 73° F.
Sunday
. High: 84° F.
Monday
. High: 73° F.

Units: English | Metric

Find the Weather for any City, State or Zipcode, or Country:

U.S. State List | Severe Weather | Tropical Storms | Ski Conditions
United States | Canada | Central America | South America | Asia | Europe | Australia | Africa | Islands

Weather Underground

© Copyright 2017
The Weather Company, LLC